createdAt,value
2018-07-31T00:01:32.284Z,25.94
2018-07-31T00:04:03.657Z,25.90
2018-07-31T00:06:34.580Z,25.82
2018-07-31T00:09:08.289Z,25.83
2018-07-31T00:11:39.357Z,25.71
2018-07-31T00:14:10.438Z,25.54
2018-07-31T00:16:41.519Z,25.51
2018-07-31T00:19:12.512Z,25.51
2018-07-31T00:21:43.513Z,25.69
2018-07-31T00:24:14.469Z,25.71
2018-07-31T00:26:45.506Z,25.68
2018-07-31T00:29:16.485Z,25.64
2018-07-31T00:31:47.537Z,25.50
2018-07-31T00:34:18.501Z,25.47
2018-07-31T00:36:49.472Z,25.24
2018-07-31T00:39:20.504Z,25.16
2018-07-31T00:41:51.512Z,25.09
2018-07-31T00:44:22.901Z,25.06
2018-07-31T00:46:54.296Z,24.92
2018-07-31T00:49:25.365Z,24.89
2018-07-31T00:51:56.381Z,24.96
2018-07-31T00:54:27.448Z,24.94
2018-07-31T00:56:58.496Z,24.81
2018-07-31T00:59:29.481Z,24.74
2018-07-31T01:02:00.489Z,24.70
2018-07-31T01:04:31.493Z,24.49
2018-07-31T01:07:02.536Z,24.41
2018-07-31T01:09:33.477Z,24.24
2018-07-31T01:12:04.469Z,24.23
2018-07-31T01:14:35.481Z,24.36
2018-07-31T01:17:06.496Z,24.26
2018-07-31T01:19:37.469Z,24.41
2018-07-31T01:22:08.509Z,24.18
2018-07-31T01:24:39.522Z,24.22
2018-07-31T01:27:10.526Z,24.38
2018-07-31T01:29:41.515Z,24.22
2018-07-31T01:32:12.533Z,24.20
2018-07-31T01:34:43.521Z,24.32
2018-07-31T01:37:14.496Z,24.24
2018-07-31T01:39:45.453Z,24.29
2018-07-31T01:42:16.509Z,24.26
2018-07-31T01:44:47.421Z,24.12
2018-07-31T01:47:18.497Z,24.22
2018-07-31T01:49:49.536Z,24.29
2018-07-31T01:52:20.496Z,24.23
2018-07-31T01:54:51.592Z,24.29
2018-07-31T01:57:22.500Z,24.24
2018-07-31T01:59:53.546Z,24.20
2018-07-31T02:02:24.508Z,24.08
2018-07-31T02:04:55.509Z,23.97
2018-07-31T02:07:26.549Z,23.86
2018-07-31T02:09:57.529Z,23.89
2018-07-31T02:12:28.539Z,23.83
2018-07-31T02:14:59.522Z,23.55
2018-07-31T02:17:30.526Z,23.64
2018-07-31T02:20:01.526Z,23.56
2018-07-31T02:22:32.525Z,23.59
2018-07-31T02:25:03.521Z,23.42
2018-07-31T02:27:34.525Z,23.44
2018-07-31T02:30:08.638Z,23.41
2018-07-31T02:32:40.025Z,23.48
2018-07-31T02:35:11.295Z,23.52
2018-07-31T02:37:42.399Z,23.36
2018-07-31T02:40:13.568Z,23.42
2018-07-31T02:42:44.493Z,23.53
2018-07-31T02:45:16.021Z,23.56
2018-07-31T02:47:47.221Z,23.53
2018-07-31T02:50:18.407Z,23.55
2018-07-31T02:52:49.524Z,23.62
2018-07-31T02:55:20.501Z,23.55
2018-07-31T02:57:51.562Z,23.66
2018-07-31T03:00:22.484Z,23.67
2018-07-31T03:02:53.481Z,23.62
2018-07-31T03:05:24.514Z,23.60
2018-07-31T03:07:55.502Z,23.58
2018-07-31T03:10:26.477Z,23.55
2018-07-31T03:12:57.498Z,23.41
2018-07-31T03:15:28.530Z,23.41
2018-07-31T03:18:01.025Z,23.42
2018-07-31T03:20:32.288Z,23.38
2018-07-31T03:23:03.414Z,23.21
2018-07-31T03:25:34.516Z,23.12
2018-07-31T03:28:05.541Z,23.28
2018-07-31T03:30:36.470Z,23.27
2018-07-31T03:33:07.544Z,23.34
2018-07-31T03:35:38.466Z,23.28
2018-07-31T03:38:09.529Z,23.19
2018-07-31T03:40:40.493Z,23.01
2018-07-31T03:43:11.553Z,22.99
2018-07-31T03:45:42.597Z,23.13
2018-07-31T03:48:13.576Z,22.79
2018-07-31T03:50:44.500Z,22.95
2018-07-31T03:53:15.489Z,22.68
2018-07-31T03:55:46.582Z,22.82
2018-07-31T03:58:18.202Z,22.66
2018-07-31T04:00:49.391Z,22.67
2018-07-31T04:03:20.522Z,22.47
2018-07-31T04:05:51.522Z,22.51
2018-07-31T04:08:22.509Z,22.60
2018-07-31T04:10:53.546Z,22.46
2018-07-31T04:13:24.534Z,22.53
2018-07-31T04:15:56.322Z,22.60
2018-07-31T04:18:27.440Z,22.72
2018-07-31T04:20:58.570Z,22.68
2018-07-31T04:23:29.611Z,22.49
2018-07-31T04:26:00.570Z,22.50
2018-07-31T04:28:31.574Z,22.45
2018-07-31T04:31:02.575Z,22.53
2018-07-31T04:33:33.541Z,22.52
2018-07-31T04:36:04.752Z,22.38
2018-07-31T04:41:06.428Z,22.29
2018-07-31T04:43:37.550Z,22.45
2018-07-31T04:46:08.558Z,22.54
2018-07-31T04:48:39.558Z,22.66
2018-07-31T04:51:10.507Z,22.76
2018-07-31T04:53:41.502Z,22.82
2018-07-31T04:56:12.467Z,22.93
2018-07-31T04:58:43.506Z,22.98
2018-07-31T05:01:14.529Z,23.02
2018-07-31T05:03:45.485Z,23.04
2018-07-31T05:06:16.713Z,22.87
2018-07-31T05:08:47.558Z,22.97
2018-07-31T05:11:18.498Z,22.94
2018-07-31T05:13:49.527Z,23.03
2018-07-31T05:16:20.542Z,23.21
2018-07-31T05:18:51.542Z,23.41
2018-07-31T05:21:22.506Z,23.39
2018-07-31T05:23:53.531Z,23.31
2018-07-31T05:26:24.497Z,23.40
2018-07-31T05:28:55.509Z,23.59
2018-07-31T05:31:26.487Z,23.63
2018-07-31T05:33:57.524Z,23.75
2018-07-31T05:36:28.792Z,23.83
2018-07-31T05:39:01.241Z,23.96
2018-07-31T05:41:32.349Z,24.00
2018-07-31T05:44:03.377Z,24.14
2018-07-31T05:46:34.415Z,24.18
2018-07-31T05:49:06.433Z,24.18
2018-07-31T05:51:37.996Z,24.37
2018-07-31T05:54:09.317Z,24.45
2018-07-31T05:56:40.401Z,24.37
2018-07-31T05:59:11.504Z,24.43
2018-07-31T06:01:42.482Z,24.78
2018-07-31T06:04:13.507Z,24.65
2018-07-31T06:06:44.505Z,24.77
2018-07-31T06:09:15.485Z,24.46
2018-07-31T06:11:46.511Z,24.44
2018-07-31T06:14:17.501Z,24.42
2018-07-31T06:16:48.631Z,24.61
2018-07-31T06:19:19.508Z,24.53
2018-07-31T06:21:50.753Z,24.79
2018-07-31T06:24:21.593Z,24.70
2018-07-31T06:26:52.479Z,24.96
2018-07-31T06:29:23.502Z,24.75
2018-07-31T06:31:54.521Z,25.34
2018-07-31T06:34:25.489Z,25.45
2018-07-31T06:36:56.486Z,25.11
2018-07-31T06:39:27.492Z,25.35
2018-07-31T06:41:58.511Z,25.56
2018-07-31T06:44:29.499Z,25.61
2018-07-31T06:47:00.480Z,25.59
2018-07-31T06:49:31.510Z,25.86
2018-07-31T06:52:02.500Z,25.82
2018-07-31T06:54:33.518Z,25.79
2018-07-31T06:57:04.488Z,25.61
2018-07-31T06:59:35.534Z,25.87
2018-07-31T07:02:06.595Z,25.93
2018-07-31T07:04:37.509Z,26.17
2018-07-31T07:07:08.580Z,26.11
2018-07-31T07:09:39.522Z,26.01
2018-07-31T07:12:10.501Z,26.22
2018-07-31T07:14:41.505Z,26.35
2018-07-31T07:17:12.557Z,26.14
2018-07-31T07:19:43.526Z,26.38
2018-07-31T07:22:14.486Z,26.58
2018-07-31T07:24:45.498Z,26.51
2018-07-31T07:27:16.516Z,26.61
2018-07-31T07:29:48.400Z,26.80
2018-07-31T07:32:19.525Z,26.79
2018-07-31T07:34:50.518Z,27.13
2018-07-31T07:37:21.488Z,27.23
2018-07-31T07:39:52.538Z,27.17
2018-07-31T07:42:23.459Z,27.36
2018-07-31T07:44:54.570Z,27.51
2018-07-31T07:47:25.486Z,27.63
2018-07-31T07:49:56.485Z,27.75
2018-07-31T07:53:03.522Z,28.00
2018-07-31T07:55:34.547Z,28.07
2018-07-31T07:58:05.620Z,28.19
2018-07-31T08:00:36.627Z,28.35
2018-07-31T08:03:08.510Z,28.47
2018-07-31T08:05:40.605Z,28.44
2018-07-31T08:08:13.388Z,28.28
2018-07-31T08:10:45.925Z,28.45
2018-07-31T08:13:18.573Z,28.70
2018-07-31T08:15:49.731Z,28.79
2018-07-31T08:18:20.731Z,28.91
2018-07-31T08:20:52.595Z,29.18
2018-07-31T08:23:24.351Z,29.37
2018-07-31T08:25:55.707Z,29.64
2018-07-31T08:28:27.031Z,29.56
2018-07-31T08:30:58.434Z,29.82
2018-07-31T08:33:30.212Z,30.14
2018-07-31T08:36:01.448Z,30.49
2018-07-31T08:38:32.626Z,30.81
2018-07-31T08:41:03.686Z,31.10
2018-07-31T08:43:35.298Z,31.33
2018-07-31T08:46:06.669Z,31.00
2018-07-31T08:48:37.752Z,31.70
2018-07-31T08:51:09.547Z,32.40
2018-07-31T08:53:41.463Z,33.03
2018-07-31T08:56:12.618Z,32.80
2018-07-31T08:58:43.660Z,32.76
2018-07-31T09:01:15.018Z,33.56
2018-07-31T09:03:46.453Z,33.89
2018-07-31T09:06:22.402Z,33.44
2018-07-31T09:08:53.664Z,34.49
2018-07-31T09:11:25.358Z,34.54
2018-07-31T09:13:56.604Z,34.41
2018-07-31T09:16:27.645Z,34.94
2018-07-31T09:18:59.955Z,35.52
2018-07-31T09:21:31.409Z,36.09
2018-07-31T09:24:02.578Z,36.07
2018-07-31T09:26:33.785Z,35.85
2018-07-31T09:29:04.395Z,35.48
2018-07-31T09:31:35.630Z,35.84
2018-07-31T09:34:07.201Z,36.44
2018-07-31T09:36:38.529Z,35.42
2018-07-31T09:39:12.469Z,36.36
2018-07-31T09:41:43.670Z,36.07
2018-07-31T09:44:14.626Z,36.53
2018-07-31T09:46:46.419Z,37.35
2018-07-31T09:49:17.568Z,37.12
2018-07-31T09:51:50.404Z,37.43
2018-07-31T09:54:21.581Z,37.34
2018-07-31T09:57:42.514Z,37.59
2018-07-31T10:00:16.511Z,37.93
2018-07-31T10:02:48.693Z,37.92
2018-07-31T10:05:20.483Z,38.48
2018-07-31T10:07:51.821Z,38.16
2018-07-31T10:10:22.320Z,37.99
2018-07-31T10:12:55.325Z,38.58
2018-07-31T10:15:26.411Z,38.48
2018-07-31T10:17:57.651Z,37.68
2018-07-31T10:20:28.647Z,38.22
2018-07-31T10:22:59.882Z,38.87
2018-07-31T10:25:32.453Z,38.51
2018-07-31T10:28:03.595Z,39.11
2018-07-31T10:30:34.710Z,39.17
2018-07-31T10:33:05.699Z,39.17
2018-07-31T10:35:36.784Z,39.18
2018-07-31T10:38:08.265Z,39.24
2018-07-31T10:40:39.592Z,39.39
2018-07-31T10:43:10.829Z,38.57
2018-07-31T10:45:41.398Z,39.03
2018-07-31T10:48:12.614Z,39.64
2018-07-31T10:50:44.243Z,39.62
2018-07-31T10:53:15.428Z,38.95
2018-07-31T10:55:46.667Z,40.07
2018-07-31T10:58:18.622Z,39.02
2018-07-31T11:00:50.602Z,39.76
2018-07-31T11:03:22.376Z,39.51
2018-07-31T11:05:53.801Z,40.29
2018-07-31T11:08:24.531Z,39.57
2018-07-31T11:10:55.722Z,40.06
2018-07-31T11:13:27.205Z,39.76
2018-07-31T11:15:58.426Z,39.45
2018-07-31T11:18:29.735Z,40.39
2018-07-31T11:21:01.461Z,39.94
2018-07-31T11:23:32.544Z,40.18
2018-07-31T11:26:03.649Z,39.97
2018-07-31T11:28:34.636Z,39.94
2018-07-31T11:31:07.323Z,40.62
2018-07-31T11:33:38.771Z,39.81
2018-07-31T11:36:10.659Z,40.27
2018-07-31T11:38:42.237Z,40.64
2018-07-31T11:41:13.697Z,39.09
2018-07-31T11:43:46.185Z,40.32
2018-07-31T11:46:18.282Z,39.72
2018-07-31T11:48:50.342Z,39.78
2018-07-31T11:51:22.647Z,40.45
2018-07-31T11:53:55.416Z,40.04
2018-07-31T11:56:26.596Z,40.21
2018-07-31T11:58:57.631Z,39.89
2018-07-31T12:01:28.618Z,39.52
2018-07-31T12:03:59.698Z,39.21
2018-07-31T12:06:31.536Z,38.65
2018-07-31T12:09:02.721Z,38.29
2018-07-31T12:11:34.035Z,37.67
2018-07-31T12:14:05.826Z,37.51
2018-07-31T12:16:37.299Z,37.22
2018-07-31T12:19:13.366Z,38.13
2018-07-31T12:21:44.613Z,37.80
2018-07-31T12:24:15.753Z,37.05
2018-07-31T12:26:47.527Z,37.82
2018-07-31T12:29:18.703Z,37.25
2018-07-31T12:31:50.039Z,37.71
2018-07-31T12:34:21.573Z,38.07
2018-07-31T12:36:53.344Z,38.49
2018-07-31T12:39:24.781Z,38.31
2018-07-31T12:41:55.418Z,39.13
2018-07-31T12:44:26.737Z,37.97
2018-07-31T12:46:58.029Z,38.02
2018-07-31T12:49:29.499Z,38.52
2018-07-31T12:52:00.744Z,38.71
2018-07-31T12:54:33.045Z,37.97
2018-07-31T12:57:04.431Z,39.53
2018-07-31T12:59:35.640Z,38.67
2018-07-31T13:02:06.674Z,38.67
2018-07-31T13:04:37.807Z,39.20
2018-07-31T13:07:08.289Z,39.20
2018-07-31T13:09:39.481Z,38.99
2018-07-31T13:12:11.237Z,38.52
2018-07-31T13:14:42.503Z,38.18
2018-07-31T13:17:13.722Z,38.16
2018-07-31T13:19:44.780Z,39.37
2018-07-31T13:22:15.682Z,40.34
2018-07-31T13:24:47.409Z,40.78
2018-07-31T13:27:18.650Z,41.41
2018-07-31T13:29:51.033Z,40.00
2018-07-31T13:32:22.412Z,37.81
2018-07-31T13:34:53.608Z,38.25
2018-07-31T13:37:24.745Z,38.26
2018-07-31T13:39:55.756Z,39.16
2018-07-31T13:42:26.626Z,39.46
2018-07-31T13:44:58.295Z,40.02
2018-07-31T13:47:29.550Z,39.41
2018-07-31T13:50:00.634Z,38.72
2018-07-31T13:52:31.586Z,39.00
2018-07-31T13:55:02.609Z,39.57
2018-07-31T13:57:33.651Z,39.90
2018-07-31T14:00:05.558Z,40.10
2018-07-31T14:02:36.596Z,40.15
2018-07-31T14:05:07.672Z,38.64
2018-07-31T14:07:39.263Z,38.34
2018-07-31T14:10:10.838Z,38.21
2018-07-31T14:12:42.455Z,37.39
2018-07-31T14:15:13.570Z,37.52
2018-07-31T14:17:44.835Z,37.55
2018-07-31T14:20:15.306Z,37.35
2018-07-31T14:22:46.656Z,37.01
2018-07-31T14:25:17.724Z,36.98
2018-07-31T14:27:49.315Z,36.87
2018-07-31T14:30:20.460Z,36.80
2018-07-31T14:32:51.685Z,37.01
2018-07-31T14:35:24.531Z,37.89
2018-07-31T14:37:55.627Z,37.99
2018-07-31T14:40:26.706Z,38.23
2018-07-31T14:42:57.885Z,38.10
2018-07-31T14:45:28.375Z,38.86
2018-07-31T14:47:59.574Z,38.45
2018-07-31T14:50:30.632Z,38.99
2018-07-31T14:53:01.767Z,39.59
2018-07-31T14:55:32.733Z,39.26
2018-07-31T14:58:03.684Z,39.62
2018-07-31T15:00:34.726Z,39.36
2018-07-31T15:03:06.212Z,38.58
2018-07-31T15:05:37.421Z,39.58
2018-07-31T15:08:09.538Z,38.54
2018-07-31T15:10:40.633Z,38.51
2018-07-31T15:13:11.614Z,38.89
2018-07-31T15:15:43.527Z,39.19
2018-07-31T15:18:15.052Z,39.02
2018-07-31T15:20:46.574Z,39.00
2018-07-31T15:23:17.709Z,38.66
2018-07-31T15:25:49.582Z,38.53
2018-07-31T15:28:23.746Z,38.93
2018-07-31T15:30:55.232Z,38.44
2018-07-31T15:33:27.275Z,38.26
2018-07-31T15:35:59.713Z,37.44
2018-07-31T15:38:31.639Z,37.75
2018-07-31T15:41:04.672Z,38.04
2018-07-31T15:43:37.709Z,37.65
2018-07-31T15:46:09.582Z,37.93
2018-07-31T15:48:41.077Z,37.70
2018-07-31T15:51:13.377Z,37.78
2018-07-31T15:53:45.521Z,37.17
2018-07-31T15:56:17.888Z,37.26
2018-07-31T15:58:50.248Z,36.76
2018-07-31T16:01:21.749Z,35.71
2018-07-31T16:03:53.458Z,35.88
2018-07-31T16:06:25.638Z,35.26
2018-07-31T16:08:57.303Z,35.03
2018-07-31T16:11:28.770Z,34.60
2018-07-31T16:14:07.245Z,34.66
2018-07-31T16:16:39.059Z,34.69
2018-07-31T16:19:10.401Z,34.57
2018-07-31T16:21:42.344Z,34.12
2018-07-31T16:24:14.503Z,33.90
2018-07-31T16:26:55.335Z,32.99
2018-07-31T16:29:26.738Z,29.39
2018-07-31T16:31:58.414Z,30.16
2018-07-31T16:34:29.514Z,28.85
2018-07-31T16:37:00.561Z,28.63
2018-07-31T16:39:31.491Z,28.19
2018-07-31T16:42:02.472Z,27.91
2018-07-31T16:44:33.440Z,27.74
2018-07-31T16:47:04.725Z,27.92
2018-07-31T16:49:35.541Z,27.51
2018-07-31T16:52:06.550Z,27.92
2018-07-31T16:54:37.492Z,27.93
2018-07-31T16:57:08.556Z,28.18
2018-07-31T16:59:39.479Z,28.04
2018-07-31T17:02:10.518Z,28.56
2018-07-31T17:04:41.481Z,28.59
2018-07-31T17:07:12.472Z,28.82
2018-07-31T17:09:43.452Z,28.80
2018-07-31T17:12:14.545Z,28.89
2018-07-31T17:14:45.550Z,28.94
2018-07-31T17:17:16.554Z,29.10
2018-07-31T17:19:47.508Z,29.14
2018-07-31T17:22:18.501Z,29.24
2018-07-31T17:24:49.581Z,29.37
2018-07-31T17:27:20.583Z,29.49
2018-07-31T17:29:51.567Z,29.55
2018-07-31T17:32:22.561Z,29.62
2018-07-31T17:34:53.518Z,29.60
2018-07-31T17:37:24.616Z,29.77
2018-07-31T17:39:55.591Z,29.82
2018-07-31T17:42:26.536Z,29.83
2018-07-31T17:44:57.517Z,29.87
2018-07-31T17:47:28.580Z,29.81
2018-07-31T17:49:59.528Z,29.80
2018-07-31T17:52:30.493Z,29.91
2018-07-31T17:55:01.581Z,29.99
2018-07-31T17:57:32.571Z,29.94
2018-07-31T18:00:03.592Z,30.02
2018-07-31T18:02:34.577Z,29.95
2018-07-31T18:05:05.535Z,30.03
2018-07-31T18:07:36.521Z,30.15
2018-07-31T18:10:08.561Z,30.02
2018-07-31T18:12:39.608Z,30.06
2018-07-31T18:15:11.828Z,30.10
2018-07-31T18:17:42.613Z,30.13
2018-07-31T18:20:13.560Z,30.00
2018-07-31T18:22:44.511Z,29.94
2018-07-31T18:25:15.518Z,29.96
2018-07-31T18:27:46.518Z,30.10
2018-07-31T18:30:17.570Z,30.06
2018-07-31T18:32:48.517Z,29.96
2018-07-31T18:35:19.526Z,29.93
2018-07-31T18:37:50.598Z,29.94
2018-07-31T18:40:21.560Z,29.93
2018-07-31T18:42:52.582Z,29.86
2018-07-31T18:45:23.512Z,29.81
2018-07-31T18:47:54.497Z,29.79
2018-07-31T18:50:25.557Z,29.76
2018-07-31T18:52:56.580Z,29.76
2018-07-31T18:55:27.818Z,29.73
2018-07-31T18:57:58.308Z,29.65
2018-07-31T19:00:29.435Z,29.62
2018-07-31T19:03:00.530Z,29.60
2018-07-31T19:05:31.478Z,29.55
2018-07-31T19:08:02.484Z,29.55
2018-07-31T19:10:33.615Z,29.42
2018-07-31T19:13:04.510Z,29.33
2018-07-31T19:15:35.518Z,29.31
2018-07-31T19:18:06.577Z,29.26
2018-07-31T19:20:37.496Z,29.26
2018-07-31T19:23:08.541Z,29.21
2018-07-31T19:25:39.480Z,29.19
2018-07-31T19:28:10.570Z,29.15
2018-07-31T19:30:41.576Z,29.13
2018-07-31T19:33:12.526Z,29.05
2018-07-31T19:35:43.573Z,28.98
2018-07-31T19:38:15.201Z,28.96
2018-07-31T19:40:46.546Z,28.97
2018-07-31T19:43:17.496Z,28.95
2018-07-31T19:45:48.496Z,28.98
2018-07-31T19:48:19.509Z,28.94
2018-07-31T19:50:50.491Z,28.90
2018-07-31T19:53:21.513Z,28.87
2018-07-31T19:55:52.528Z,28.86
2018-07-31T19:58:23.537Z,28.85
2018-07-31T20:00:55.235Z,28.79
2018-07-31T20:03:26.553Z,28.75
2018-07-31T20:05:57.982Z,28.79
2018-07-31T20:08:29.254Z,28.83
2018-07-31T20:11:00.374Z,28.80
2018-07-31T20:13:31.500Z,28.72
2018-07-31T20:16:02.465Z,28.70
2018-07-31T20:18:33.535Z,28.80
2018-07-31T20:21:04.682Z,28.75
2018-07-31T20:23:35.509Z,28.67
2018-07-31T20:26:06.538Z,28.64
2018-07-31T20:28:37.483Z,28.60
2018-07-31T20:31:08.494Z,28.57
2018-07-31T20:33:39.496Z,28.56
2018-07-31T20:36:10.466Z,28.47
2018-07-31T20:38:41.492Z,28.51
2018-07-31T20:41:12.573Z,28.50
2018-07-31T20:43:43.501Z,28.40
2018-07-31T20:46:14.492Z,28.38
2018-07-31T20:48:45.497Z,28.35
2018-07-31T20:51:16.501Z,28.40
2018-07-31T20:53:47.497Z,28.22
2018-07-31T20:56:18.540Z,28.25
2018-07-31T20:58:49.481Z,28.19
2018-07-31T21:01:20.490Z,28.16
2018-07-31T21:03:51.533Z,28.19
2018-07-31T21:06:22.477Z,28.15
2018-07-31T21:08:53.477Z,28.15
2018-07-31T21:11:24.480Z,28.09
2018-07-31T21:13:55.480Z,28.06
2018-07-31T21:16:26.501Z,28.01
2018-07-31T21:18:57.493Z,27.96
2018-07-31T21:21:28.478Z,27.97
2018-07-31T21:23:59.457Z,27.86
2018-07-31T21:26:30.476Z,27.76
2018-07-31T21:29:01.493Z,27.70
2018-07-31T21:31:32.573Z,27.67
2018-07-31T21:34:03.518Z,27.72
2018-07-31T21:36:34.470Z,27.77
2018-07-31T21:39:09.199Z,27.82
2018-07-31T21:41:40.519Z,27.82
2018-07-31T21:44:11.837Z,27.79
2018-07-31T21:46:42.325Z,27.78
2018-07-31T21:49:15.377Z,27.70
2018-07-31T21:51:46.490Z,27.70
2018-07-31T21:54:17.505Z,27.68
2018-07-31T21:56:48.497Z,27.70
2018-07-31T21:59:19.480Z,27.65
2018-07-31T22:01:50.492Z,27.61
2018-07-31T22:04:21.476Z,27.58
2018-07-31T22:06:52.453Z,27.57
2018-07-31T22:09:28.618Z,27.49
2018-07-31T22:11:59.895Z,27.54
2018-07-31T22:14:31.717Z,27.48
2018-07-31T22:17:02.633Z,27.43
2018-07-31T22:19:33.493Z,27.37
2018-07-31T22:22:04.512Z,27.37
2018-07-31T22:24:35.556Z,27.30
2018-07-31T22:27:06.552Z,27.29
2018-07-31T22:29:37.524Z,27.22
2018-07-31T22:32:08.506Z,27.19
2018-07-31T22:34:39.533Z,27.15
2018-07-31T22:37:10.508Z,27.06
2018-07-31T22:39:41.489Z,27.06
2018-07-31T22:42:12.510Z,27.01
2018-07-31T22:44:43.497Z,26.99
2018-07-31T22:47:14.524Z,26.94
2018-07-31T22:49:45.588Z,26.86
2018-07-31T22:52:16.568Z,26.82
2018-07-31T22:54:47.540Z,26.81
2018-07-31T22:57:18.515Z,26.77
2018-07-31T22:59:49.528Z,26.75
2018-07-31T23:02:20.497Z,26.70
2018-07-31T23:04:51.513Z,26.63
2018-07-31T23:07:22.516Z,26.63
2018-07-31T23:09:58.422Z,26.60
2018-07-31T23:12:29.495Z,26.58
2018-07-31T23:15:02.015Z,26.61
2018-07-31T23:17:33.458Z,26.55
2018-07-31T23:20:06.014Z,26.68
2018-07-31T23:22:51.683Z,26.58
2018-07-31T23:25:22.555Z,26.55
2018-07-31T23:27:53.562Z,26.58
2018-07-31T23:30:24.551Z,26.52
2018-07-31T23:32:55.487Z,26.43
2018-07-31T23:35:26.539Z,26.40
2018-07-31T23:37:57.472Z,26.51
2018-07-31T23:40:28.478Z,26.45
2018-07-31T23:42:59.465Z,26.34
2018-07-31T23:45:30.485Z,26.35
2018-07-31T23:48:01.483Z,26.33
2018-07-31T23:50:32.521Z,26.39
2018-07-31T23:53:03.513Z,26.34
2018-07-31T23:55:34.480Z,26.34
2018-07-31T23:58:05.473Z,26.37
